Terminal Aerodrome Forecast
Issued by NWS

Home | Current Version | Previous Version | Text Only | Print | Product List | Glossary On
Versions: 1 2 3 4 5 6 7 8 9 10 11 12 13 14 15 16 17 18 19 20 21 22 23 24 25 26
000
FTUS43 KSGF 041300 AAA
TAFBBG
TAF AMD
KBBG 041312Z 0413/0512 36010KT 1 1/2SM -FZRAPL BR OVC003
     FM041500 36012KT 1 1/2SM -SN BR OVC002
     FM042000 01010G17KT 1/2SM SN FG VV003
     FM050000 01010KT 2SM -SN BR OVC006
     FM050200 02010KT 3SM -SN BR OVC015
     FM050500 03008KT P6SM OVC050
     FM050700 01007KT P6SM BKN080=

USA.gov is the U.S. government's official web portal to all federal, state and local government web resources and services.